Time;durP1;ratioP1;P1;durP2;ratioP2;P2;SDS_P1;SDS_P2;PMS_P1;PMS_P2;Temp;Humidity;BMP_temperature;BMP_pressure;BME280_temperature;BME280_humidity;BME280_pressure;Samples;Min_cycle;Max_cycle;Signal;HPM_P1;HPM_P2
2024/01/25 00:02:16;;;;;;;0.10;0.10;;;;;;;8.31;100.00;100064.53;5053826;28;20193;-53
2024/01/25 00:05:03;;;;;;;0.10;0.10;;;;;;;8.30;100.00;100073.38;5014225;28;20193;-52
2024/01/25 00:07:51;;;;;;;0.10;0.10;;;;;;;8.39;100.00;100074.78;5012895;28;20190;-52
2024/01/25 00:10:37;;;;;;;0.10;0.10;;;;;;;8.40;100.00;100065.09;5014115;28;20200;-53
2024/01/25 00:13:24;;;;;;;0.10;0.10;;;;;;;8.38;100.00;100069.56;5013981;28;20264;-53
2024/01/25 00:16:12;;;;;;;0.10;0.10;;;;;;;8.30;100.00;100073.38;5014062;28;20204;-53
2024/01/25 00:18:59;;;;;;;0.00;0.00;;;;;;;8.27;100.00;100064.69;5014178;28;20676;-53
2024/01/25 00:21:46;;;;;;;0.10;0.10;;;;;;;8.29;100.00;100068.13;5013811;28;20736;-53
2024/01/25 00:24:34;;;;;;;0.10;0.10;;;;;;;8.27;100.00;100083.16;5012688;28;20204;-53
2024/01/25 00:27:20;;;;;;;0.10;0.10;;;;;;;8.32;100.00;100078.56;5014099;28;20201;-53
2024/01/25 00:30:08;;;;;;;0.10;0.10;;;;;;;8.42;100.00;100073.81;5013853;28;20249;-52
2024/01/25 00:32:57;;;;;;;0.10;0.10;;;;;;;8.41;100.00;100069.47;5013886;28;20335;-53
2024/01/25 00:35:44;;;;;;;0.10;0.10;;;;;;;8.41;100.00;100065.03;5013824;28;20206;-52
2024/01/25 00:38:32;;;;;;;0.10;0.10;;;;;;;8.43;100.00;100063.19;5012052;28;20221;-53
2024/01/25 00:41:19;;;;;;;0.10;0.10;;;;;;;8.47;100.00;100082.38;5012645;28;20204;-53
2024/01/25 00:44:07;;;;;;;0.10;0.10;;;;;;;8.45;100.00;100078.97;5013641;28;20198;-52
2024/01/25 00:46:54;;;;;;;0.10;0.10;;;;;;;8.45;100.00;100084.25;5013546;28;20205;-52
2024/01/25 00:49:43;;;;;;;0.10;0.10;;;;;;;8.58;100.00;100088.09;5013208;28;20201;-52
2024/01/25 00:52:31;;;;;;;0.10;0.10;;;;;;;8.56;100.00;100088.16;4992687;28;20222;-53
2024/01/25 00:55:19;;;;;;;0.10;0.10;;;;;;;8.53;100.00;100095.34;4993723;28;20289;-53
2024/01/25 00:58:06;;;;;;;0.10;0.10;;;;;;;8.56;100.00;100098.72;4993780;28;20265;-52
2024/01/25 01:00:54;;;;;;;0.10;0.10;;;;;;;8.56;100.00;100090.81;5001039;28;20197;-52
2024/01/25 01:03:41;;;;;;;0.10;0.10;;;;;;;8.65;100.00;100091.34;5031476;28;20231;-53
2024/01/25 01:06:30;;;;;;;0.10;0.10;;;;;;;8.61;100.00;100082.72;5052882;28;20200;-53
2024/01/25 01:09:17;;;;;;;0.10;0.10;;;;;;;8.52;100.00;100083.94;5051684;28;20193;-53
2024/01/25 01:12:04;;;;;;;0.10;0.10;;;;;;;8.48;100.00;100077.03;5052820;28;20227;-53
2024/01/25 01:14:51;;;;;;;0.00;0.00;;;;;;;8.46;100.00;100081.53;5052883;28;20258;-53
2024/01/25 01:17:38;;;;;;;0.00;0.00;;;;;;;8.34;100.00;100076.72;5052590;28;20224;-52
2024/01/25 01:20:25;;;;;;;0.00;0.00;;;;;;;8.19;100.00;100079.97;5052705;28;20263;-53
2024/01/25 01:23:14;;;;;;;0.10;0.10;;;;;;;8.27;100.00;100099.84;5051462;28;20200;-53
2024/01/25 01:26:00;;;;;;;0.10;0.10;;;;;;;8.33;100.00;100094.34;5052211;28;20184;-52
2024/01/25 01:28:47;;;;;;;0.10;0.10;;;;;;;8.27;100.00;100102.50;5052824;28;20192;-53
2024/01/25 01:31:34;;;;;;;0.10;0.10;;;;;;;8.46;100.00;100105.31;5052381;28;20200;-53
2024/01/25 01:34:21;;;;;;;0.10;0.10;;;;;;;8.54;100.00;100113.78;5052685;28;20327;-52
2024/01/25 01:37:08;;;;;;;0.00;0.00;;;;;;;8.42;100.00;100118.69;5037700;28;20199;-53
2024/01/25 01:39:58;;;;;;;0.10;0.10;;;;;;;8.45;100.00;100114.16;5052667;28;20192;-53
2024/01/25 01:42:45;;;;;;;0.10;0.10;;;;;;;8.54;100.00;100119.06;5052629;28;20307;-53
2024/01/25 01:45:32;;;;;;;0.10;0.10;;;;;;;8.66;100.00;100120.34;5052527;28;20192;-53
2024/01/25 01:48:19;;;;;;;0.00;0.00;;;;;;;8.59;100.00;100121.53;5052607;28;20686;-53
2024/01/25 01:51:07;;;;;;;0.10;0.10;;;;;;;8.66;100.00;100119.47;5052758;28;20718;-52
2024/01/25 01:53:55;;;;;;;0.10;0.10;;;;;;;8.60;100.00;100117.97;5051199;28;20207;-53
2024/01/25 01:56:45;;;;;;;0.00;0.00;;;;;;;8.68;100.00;100113.19;5052399;28;20264;-53
2024/01/25 01:59:32;;;;;;;0.10;0.10;;;;;;;8.65;100.00;100115.97;5052084;28;20346;-53
2024/01/25 02:02:19;;;;;;;0.10;0.10;;;;;;;8.64;100.00;100129.25;5053647;28;20196;-53
2024/01/25 02:05:06;;;;;;;0.10;0.10;;;;;;;8.48;100.00;100118.44;5016601;28;20301;-53
2024/01/25 02:07:54;;;;;;;0.10;0.10;;;;;;;8.39;100.00;100114.38;5015121;28;20585;-52
2024/01/25 02:10:43;;;;;;;0.10;0.10;;;;;;;8.46;100.00;100113.22;5016104;28;20194;-52
2024/01/25 02:13:31;;;;;;;0.10;0.10;;;;;;;8.40;100.00;100113.47;5016361;28;20205;-53
2024/01/25 02:16:19;;;;;;;0.10;0.10;;;;;;;8.48;100.00;100108.72;5016343;28;20262;-53
2024/01/25 02:19:06;;;;;;;0.10;0.10;;;;;;;8.46;100.00;100115.00;5015037;28;20226;-53
2024/01/25 02:21:55;;;;;;;0.10;0.10;;;;;;;8.46;100.00;100112.34;5016215;28;20758;-52
2024/01/25 02:24:43;;;;;;;0.10;0.10;;;;;;;8.45;100.00;100121.19;5015311;28;20194;-53
2024/01/25 02:27:30;;;;;;;0.00;0.00;;;;;;;8.52;100.00;100107.69;5016004;28;20202;-53
2024/01/25 02:30:17;;;;;;;0.10;0.10;;;;;;;8.47;100.00;100101.72;5016125;28;20205;-52
2024/01/25 02:33:04;;;;;;;0.03;0.03;;;;;;;8.40;100.00;100115.25;5015900;28;20201;-53
2024/01/25 02:35:51;;;;;;;0.00;0.00;;;;;;;8.46;100.00;100109.72;5015906;28;20217;-52
2024/01/25 02:38:38;;;;;;;0.10;0.10;;;;;;;8.43;100.00;100108.06;5014631;28;20221;-53
2024/01/25 02:41:25;;;;;;;0.00;0.00;;;;;;;8.41;100.00;100106.41;5015826;28;20253;-52
2024/01/25 02:44:12;;;;;;;0.10;0.10;;;;;;;8.44;100.00;100112.44;5015782;28;20214;-53
2024/01/25 02:47:01;;;;;;;0.10;0.10;;;;;;;8.49;100.00;100117.50;5015764;28;20237;-52
2024/01/25 02:49:47;;;;;;;0.10;0.10;;;;;;;8.47;100.00;100122.84;5015423;28;20241;-53
2024/01/25 02:52:35;;;;;;;0.00;0.00;;;;;;;8.52;100.00;100131.47;5014367;28;20325;-53
2024/01/25 02:55:22;;;;;;;0.10;0.10;;;;;;;8.59;100.00;100127.66;5015591;28;20739;-53
2024/01/25 02:58:11;;;;;;;0.10;0.10;;;;;;;8.73;100.00;100136.81;5015229;28;20210;-53
2024/01/25 03:00:57;;;;;;;0.10;0.10;;;;;;;8.72;100.00;100137.72;5015412;28;20232;-53
2024/01/25 03:03:44;;;;;;;0.10;0.10;;;;;;;8.72;100.00;100145.66;5034518;28;20266;-53
2024/01/25 03:06:31;;;;;;;0.10;0.10;;;;;;;8.74;100.00;100141.16;5054990;28;20192;-53
2024/01/25 03:09:18;;;;;;;0.10;0.10;;;;;;;8.76;100.00;100142.81;5053770;28;20195;-52
2024/01/25 03:12:06;;;;;;;0.10;0.10;;;;;;;8.77;100.00;100141.03;5054879;28;20208;-53
2024/01/25 03:14:54;;;;;;;0.10;0.10;;;;;;;8.77;100.00;100136.59;5054636;28;20678;-54
2024/01/25 03:17:41;;;;;;;0.10;0.10;;;;;;;8.80;100.00;100131.22;5054894;28;20200;-53
2024/01/25 03:20:28;;;;;;;0.00;0.00;;;;;;;8.81;100.00;100132.06;5054329;28;20204;-53
2024/01/25 03:23:15;;;;;;;0.10;0.10;;;;;;;8.79;100.00;100136.56;5052779;28;20204;-53
2024/01/25 03:26:03;;;;;;;0.00;0.00;;;;;;;8.71;100.00;100138.66;5054827;28;20291;-53
2024/01/25 03:28:50;;;;;;;0.10;0.10;;;;;;;8.69;100.00;100138.72;5054794;28;20192;-53
2024/01/25 03:31:38;;;;;;;0.10;0.10;;;;;;;8.75;100.00;100135.81;5054168;28;20239;-53
2024/01/25 03:34:25;;;;;;;0.10;0.10;;;;;;;8.62;100.00;100133.75;5053821;28;20233;-53
2024/01/25 03:37:12;;;;;;;0.07;0.07;;;;;;;8.51;100.00;100137.66;5054619;28;20195;-53
2024/01/25 03:39:59;;;;;;;0.10;0.10;;;;;;;8.48;100.00;100135.13;5054084;28;20220;-52
2024/01/25 03:42:46;;;;;;;0.00;0.00;;;;;;;8.45;100.00;100135.25;5034537;28;20205;-53
2024/01/25 03:45:52;;;;;;;0.10;0.10;;;;;;;8.38;100.00;100125.84;5034463;28;20311;-52
2024/01/25 03:48:41;;;;;;;0.10;0.10;;;;;;;8.31;100.00;100129.66;5034448;28;20264;-53
2024/01/25 03:51:27;;;;;;;0.10;0.10;;;;;;;8.26;100.00;100136.88;5043813;28;20276;-53
2024/01/25 03:54:14;;;;;;;0.10;0.10;;;;;;;8.24;100.00;100134.28;5053197;28;20204;-52
2024/01/25 03:57:01;;;;;;;0.10;0.10;;;;;;;8.21;100.00;100139.69;5054277;28;20200;-53
2024/01/25 03:59:48;;;;;;;0.10;0.10;;;;;;;8.22;100.00;100144.06;5053994;28;20255;-53
2024/01/25 04:02:36;;;;;;;0.10;0.10;;;;;;;8.19;100.00;100146.78;5053949;28;20243;-53
2024/01/25 04:05:24;;;;;;;0.10;0.10;;;;;;;8.14;100.00;100135.56;5053983;28;20215;-52
2024/01/25 04:08:11;;;;;;;0.10;0.10;;;;;;;8.00;100.00;100149.25;5052759;28;20255;-53
2024/01/25 04:10:58;;;;;;;0.10;0.10;;;;;;;7.93;100.00;100161.00;5053824;28;20200;-53
2024/01/25 04:13:45;;;;;;;0.10;0.10;;;;;;;7.97;100.00;100167.84;5053906;28;20200;-52
2024/01/25 04:16:32;;;;;;;0.10;0.10;;;;;;;8.02;100.00;100171.19;5053722;28;20196;-53
2024/01/25 04:19:19;;;;;;;0.10;0.10;;;;;;;7.99;100.00;100171.28;5053565;28;20306;-53
2024/01/25 04:22:08;;;;;;;0.00;0.00;;;;;;;8.02;100.00;100180.91;5053528;28;20258;-53
2024/01/25 04:24:54;;;;;;;0.10;0.10;;;;;;;8.08;100.00;100174.50;5052974;28;20303;-53
2024/01/25 04:27:41;;;;;;;0.00;0.00;;;;;;;8.01;100.00;100180.03;5053657;28;20216;-53
2024/01/25 04:30:30;;;;;;;0.10;0.10;;;;;;;7.97;100.00;100185.47;5053463;28;20195;-53
2024/01/25 04:33:18;;;;;;;0.10;0.10;;;;;;;8.06;100.00;100202.75;5053494;28;20192;-53
2024/01/25 04:36:05;;;;;;;0.00;0.00;;;;;;;8.32;100.00;100215.84;5053538;28;20266;-52
2024/01/25 04:38:53;;;;;;;0.10;0.10;;;;;;;8.37;100.00;100220.97;5052121;28;20211;-53
2024/01/25 04:41:40;;;;;;;0.10;0.10;;;;;;;8.37;100.00;100228.88;5053293;28;20238;-53
2024/01/25 04:44:27;;;;;;;0.10;0.10;;;;;;;8.28;100.00;100216.84;5053218;28;20231;-53
2024/01/25 04:47:14;;;;;;;0.00;0.00;;;;;;;8.28;100.00;100216.84;5053356;28;20212;-53
2024/01/25 04:50:01;;;;;;;0.10;0.10;;;;;;;8.15;100.00;100208.53;5053415;28;20422;-53
2024/01/25 04:52:48;;;;;;;0.10;0.10;;;;;;;7.91;100.00;100210.31;5051785;28;20203;-52
2024/01/25 04:55:37;;;;;;;0.10;0.10;;;;;;;7.89;100.00;100204.22;5053154;28;20199;-53
2024/01/25 04:58:23;;;;;;;0.10;0.10;;;;;;;7.85;100.00;100214.94;5053101;28;20192;-53
2024/01/25 05:01:10;;;;;;;0.10;0.10;;;;;;;7.83;100.00;100212.34;5052852;28;20662;-53
2024/01/25 05:03:57;;;;;;;0.10;0.10;;;;;;;7.79;100.00;100217.78;5052903;28;20239;-53
2024/01/25 05:06:44;;;;;;;0.00;0.00;;;;;;;7.76;100.00;100218.75;5053086;28;20193;-52
2024/01/25 05:09:31;;;;;;;0.00;0.00;;;;;;;7.87;100.00;100221.00;5051523;28;20327;-53
2024/01/25 05:12:19;;;;;;;0.10;0.10;;;;;;;7.87;100.00;100231.56;5052894;28;20216;-53
2024/01/25 05:15:07;;;;;;;0.10;0.10;;;;;;;7.82;100.00;100244.06;5052787;28;20199;-52
2024/01/25 05:17:54;;;;;;;0.10;0.10;;;;;;;7.78;100.00;100245.94;5052594;28;20205;-53
2024/01/25 05:20:41;;;;;;;0.10;0.10;;;;;;;7.81;100.00;100248.44;5052487;28;20220;-53
2024/01/25 05:23:28;;;;;;;0.10;0.10;;;;;;;7.71;100.00;100239.16;5050908;28;20248;-53
2024/01/25 05:26:15;;;;;;;0.10;0.10;;;;;;;7.67;100.00;100235.75;5052603;28;20192;-53
2024/01/25 05:29:04;;;;;;;0.10;0.10;;;;;;;7.64;100.00;100227.97;5052411;28;20271;-53
2024/01/25 05:31:50;;;;;;;0.10;0.10;;;;;;;7.57;100.00;100220.31;5037625;28;20200;-52
2024/01/25 05:34:37;;;;;;;0.10;0.10;;;;;;;7.76;100.00;100221.41;5052455;28;20670;-53
2024/01/25 05:37:24;;;;;;;0.10;0.10;;;;;;;7.56;100.00;100223.88;5054445;28;20292;-53
2024/01/25 05:40:12;;;;;;;0.00;0.00;;;;;;;7.57;100.00;100230.88;5056245;28;20215;-52
2024/01/25 05:43:00;;;;;;;0.10;0.10;;;;;;;7.53;100.00;100219.56;5036756;28;20197;-52
2024/01/25 05:45:48;;;;;;;0.10;0.10;;;;;;;7.41;100.00;100228.75;5036750;28;20189;-52
2024/01/25 05:48:36;;;;;;;0.10;0.10;;;;;;;7.44;100.00;100228.66;5036673;28;20231;-53
2024/01/25 05:51:23;;;;;;;0.10;0.10;;;;;;;7.33;100.00;100237.81;5043353;28;20204;-53
2024/01/25 05:54:10;;;;;;;0.10;0.10;;;;;;;7.41;100.00;100236.66;5055461;28;20299;-53
2024/01/25 05:56:57;;;;;;;0.10;0.10;;;;;;;7.38;100.00;100231.50;5056459;28;20280;-52
2024/01/25 05:59:44;;;;;;;0.10;0.10;;;;;;;7.33;100.00;100246.56;5056177;28;20207;-53
2024/01/25 06:02:32;;;;;;;0.00;0.00;;;;;;;7.24;100.00;100248.66;5056315;28;20204;-53
2024/01/25 06:05:19;;;;;;;0.10;0.10;;;;;;;7.15;100.00;100247.22;5056295;28;20192;-53
2024/01/25 06:08:06;;;;;;;0.00;0.00;;;;;;;7.08;100.00;100251.81;5054843;28;20360;-53
2024/01/25 06:10:54;;;;;;;0.00;0.00;;;;;;;7.07;100.00;100236.91;5056267;28;20200;-53
2024/01/25 06:13:41;;;;;;;0.10;0.10;;;;;;;7.07;100.00;100236.91;5056285;28;20200;-53
2024/01/25 06:16:28;;;;;;;0.10;0.10;;;;;;;6.96;100.00;100238.19;5056046;28;20192;-53
2024/01/25 06:19:16;;;;;;;0.00;0.00;;;;;;;6.98;100.00;100249.50;5055995;28;20195;-52
2024/01/25 06:22:03;;;;;;;0.10;0.10;;;;;;;6.91;100.00;100243.56;5055925;28;20212;-53
2024/01/25 06:24:50;;;;;;;0.10;0.10;;;;;;;6.89;100.00;100253.28;5055793;28;20200;-53
2024/01/25 06:27:37;;;;;;;0.10;0.10;;;;;;;6.93;100.00;100256.69;5055741;28;20216;-53
2024/01/25 06:30:24;;;;;;;0.10;0.10;;;;;;;7.03;100.00;100256.34;5055834;28;20208;-52
2024/01/25 06:33:10;;;;;;;0.10;0.10;;;;;;;6.94;100.00;100276.84;5035827;28;20197;-52
2024/01/25 06:35:59;;;;;;;0.10;0.10;;;;;;;6.91;100.00;100269.91;5035799;28;20235;-53
2024/01/25 06:38:46;;;;;;;0.10;0.10;;;;;;;6.92;100.00;100276.03;5034340;28;20200;-53
2024/01/25 06:41:33;;;;;;;0.00;0.00;;;;;;;6.91;100.00;100272.53;5043002;28;20281;-53
2024/01/25 06:44:19;;;;;;;0.10;0.10;;;;;;;6.87;100.00;100282.31;5055631;28;20196;-53
2024/01/25 06:47:06;;;;;;;0.10;0.10;;;;;;;7.05;100.00;100285.31;5055523;28;20239;-53
2024/01/25 06:49:53;;;;;;;0.00;0.00;;;;;;;6.95;100.00;100283.84;5055291;28;20196;-52
2024/01/25 06:52:42;;;;;;;0.00;0.00;;;;;;;7.02;100.00;100286.22;5054021;28;20208;-52
2024/01/25 06:55:29;;;;;;;0.10;0.10;;;;;;;6.85;100.00;100294.69;5055484;28;20196;-53
2024/01/25 06:58:16;;;;;;;0.10;0.10;;;;;;;6.72;100.00;100303.84;5055331;28;20196;-52
2024/01/25 07:01:04;;;;;;;0.10;0.10;;;;;;;6.70;100.00;100305.66;5055107;28;20270;-53
2024/01/25 07:03:51;;;;;;;0.07;0.07;;;;;;;6.67;100.00;100307.53;5054977;28;20220;-52
2024/01/25 07:06:42;;;;;;;0.00;0.00;;;;;;;6.77;100.00;100314.25;5055016;28;20183;-52
2024/01/25 07:09:30;;;;;;;0.10;0.10;;;;;;;6.65;100.00;100312.81;5053832;28;20340;-52
2024/01/25 07:12:16;;;;;;;0.10;0.10;;;;;;;6.65;100.00;100312.81;5055015;28;20192;-53
2024/01/25 07:15:04;;;;;;;0.10;0.10;;;;;;;6.64;100.00;100319.00;5054502;28;20219;-53
2024/01/25 07:17:51;;;;;;;0.10;0.10;;;;;;;6.84;100.00;100314.00;5054970;28;20316;-53
2024/01/25 07:20:38;;;;;;;0.03;0.03;;;;;;;6.67;100.00;100297.84;5054620;28;20216;-53
2024/01/25 07:23:26;;;;;;;0.10;0.10;;;;;;;6.75;100.00;100298.47;5033635;28;20201;-53
2024/01/25 07:26:19;;;;;;;0.10;0.10;;;;;;;6.64;100.00;100290.03;5034591;28;20744;-53
2024/01/25 07:29:06;;;;;;;0.10;0.10;;;;;;;6.57;100.00;100304.31;5034814;28;20248;-53
2024/01/25 07:31:52;;;;;;;0.10;0.10;;;;;;;6.65;100.00;100312.81;5044358;28;20315;-53
2024/01/25 07:34:39;;;;;;;0.00;0.00;;;;;;;6.87;100.00;100315.69;5054487;28;20200;-52
2024/01/25 07:37:26;;;;;;;0.10;0.10;;;;;;;6.85;100.00;100323.66;5033416;28;20189;-53
2024/01/25 07:40:13;;;;;;;0.00;0.00;;;;;;;6.87;100.00;100328.88;5034625;28;20201;-53
2024/01/25 07:43:01;;;;;;;0.10;0.10;;;;;;;6.94;100.00;100335.66;5052817;28;20199;-52
2024/01/25 07:45:48;;;;;;;0.00;0.00;;;;;;;7.00;100.00;100340.75;5054401;28;20259;-52
2024/01/25 07:48:38;;;;;;;0.10;0.10;;;;;;;6.96;100.00;100340.91;5053857;28;20204;-52
2024/01/25 07:51:28;;;;;;;0.10;0.10;;;;;;;6.99;100.00;100343.44;5054315;28;20709;-52
2024/01/25 07:54:16;;;;;;;0.10;0.10;;;;;;;7.21;100.00;100343.63;5053097;28;20193;-52
2024/01/25 07:57:03;;;;;;;0.10;0.10;;;;;;;7.39;100.00;100345.69;5054248;28;20299;-52
2024/01/25 07:59:51;;;;;;;0.10;0.10;;;;;;;7.49;100.00;100351.53;5053297;28;20216;-52
2024/01/25 08:02:40;;;;;;;0.10;0.10;;;;;;;7.57;100.00;100347.72;5053767;28;20219;-53
2024/01/25 08:05:26;;;;;;;0.10;0.10;;;;;;;7.54;100.00;100344.34;5054127;28;20196;-52
2024/01/25 08:08:26;;;;;;;0.10;0.10;;;;;;;7.44;100.00;100342.00;5052640;28;20196;-53
2024/01/25 08:11:13;;;;;;;0.10;0.10;;;;;;;7.52;100.00;100340.88;5053692;28;20198;-53
2024/01/25 08:14:00;;;;;;;0.10;0.10;;;;;;;7.34;100.00;100347.63;5054089;28;20679;-53
2024/01/25 08:16:48;;;;;;;0.10;0.10;;;;;;;7.30;100.00;100357.38;5053868;28;20199;-53
2024/01/25 08:19:36;;;;;;;0.10;0.10;;;;;;;7.40;100.00;100350.03;5053502;28;20223;-53
2024/01/25 08:22:23;;;;;;;0.10;0.10;;;;;;;7.26;100.00;100358.41;5052039;28;20283;-53
2024/01/25 08:25:11;;;;;;;0.10;0.10;;;;;;;7.42;100.00;100356.97;5053728;28;20203;-52
2024/01/25 08:27:58;;;;;;;0.00;0.00;;;;;;;7.70;100.00;100349.03;5053589;28;20714;-53
2024/01/25 08:30:45;;;;;;;0.10;0.10;;;;;;;7.74;100.00;100342.75;5053623;28;20254;-53
2024/01/25 08:33:33;;;;;;;0.10;0.10;;;;;;;7.74;100.00;100344.53;5033648;28;20212;-53
2024/01/25 08:36:20;;;;;;;0.10;0.10;;;;;;;7.55;100.00;100349.56;5033511;28;20209;-52
2024/01/25 08:39:08;;;;;;;0.00;0.00;;;;;;;7.82;100.00;100353.06;5032368;28;20197;-53
2024/01/25 08:41:57;;;;;;;0.10;0.10;;;;;;;7.82;100.00;100357.47;5042156;28;20250;-53
2024/01/25 08:44:48;;;;;;;0.10;0.10;;;;;;;7.61;100.00;100366.94;5053226;28;20196;-53
2024/01/25 08:47:36;;;;;;;0.10;0.10;;;;;;;7.88;100.00;100360.75;5053305;28;20201;-53
2024/01/25 08:50:24;;;;;;;0.10;0.10;;;;;;;7.82;100.00;100365.41;5053249;28;20678;-52
2024/01/25 08:53:13;;;;;;;0.00;0.00;;;;;;;8.08;100.00;100361.84;5051581;28;20206;-53
2024/01/25 08:56:00;;;;;;;0.10;0.10;;;;;;;8.32;100.00;100353.09;5052977;28;20200;-53
2024/01/25 08:58:52;;;;;;;0.10;0.10;;;;;;;8.22;100.00;100351.69;5052824;28;20204;-53
2024/01/25 09:01:38;;;;;;;0.10;0.10;;;;;;;8.32;100.00;100358.38;5037677;28;20387;-53
2024/01/25 09:04:25;;;;;;;0.10;0.10;;;;;;;8.48;100.00;100356.91;5052454;28;20271;-53
2024/01/25 09:07:14;;;;;;;0.03;0.03;;;;;;;8.45;100.00;100361.47;5051731;28;20560;-53
2024/01/25 09:10:01;;;;;;;0.10;0.10;;;;;;;8.85;100.00;100361.72;5052695;28;20196;-53
2024/01/25 09:12:47;;;;;;;0.10;0.10;;;;;;;8.73;100.00;100354.25;5052580;28;20195;-53
2024/01/25 09:15:34;;;;;;;0.10;0.10;;;;;;;8.92;100.00;100357.06;5052632;28;20257;-52
2024/01/25 09:18:21;;;;;;;0.10;0.10;;;;;;;8.98;100.00;100351.56;5052248;28;20212;-52
2024/01/25 09:21:08;;;;;;;0.10;0.10;;;;;;;8.84;100.00;100353.84;5052538;28;20702;-53
2024/01/25 09:23:57;;;;;;;0.10;0.10;;;;;;;9.01;100.00;100354.06;5051400;28;20226;-53
2024/01/25 09:26:43;;;;;;;0.10;0.10;;;;;;;9.40;100.00;100356.94;5052407;28;20203;-52
2024/01/25 09:29:30;;;;;;;0.10;0.10;;;;;;;9.42;100.00;100362.16;5052048;28;20200;-53
2024/01/25 09:32:17;;;;;;;0.10;0.10;;;;;;;9.82;100.00;100371.13;5051584;28;20203;-53
2024/01/25 09:35:05;;;;;;;0.10;0.10;;;;;;;9.72;100.00;100365.34;5052891;28;20238;-53
2024/01/25 09:37:52;;;;;;;0.10;0.10;;;;;;;9.88;100.00;100361.16;5051114;28;20235;-53
2024/01/25 09:40:41;;;;;;;0.10;0.10;;;;;;;9.96;100.00;100361.69;5052579;28;20667;-53
2024/01/25 09:43:28;;;;;;;0.10;0.10;;;;;;;10.07;100.00;100355.94;5048919;28;20319;-54
2024/01/25 09:46:16;;;;;;;0.10;0.10;;;;;;;10.44;100.00;100367.63;5052464;28;20200;-53
2024/01/25 09:49:03;;;;;;;0.10;0.10;;;;;;;9.99;100.00;100374.78;5051381;28;20196;-53
2024/01/25 09:51:52;;;;;;;0.10;0.10;;;;;;;10.05;100.00;100381.63;5051560;28;20200;-53
2024/01/25 09:54:40;;;;;;;0.10;0.10;;;;;;;9.98;100.00;100385.44;5051787;28;20196;-53
2024/01/25 09:57:30;;;;;;;0.10;0.10;;;;;;;9.96;100.00;100382.00;5052065;28;20192;-52
2024/01/25 10:00:18;;;;;;;0.10;0.10;;;;;;;9.92;100.00;100389.19;5052099;28;20683;-52
2024/01/25 10:03:05;;;;;;;0.10;0.10;;;;;;;9.56;100.00;100386.28;5051290;28;20314;-53
2024/01/25 10:05:52;;;;;;;0.10;0.10;;;;;;;9.55;100.00;100388.97;5052074;28;20204;-53
2024/01/25 10:08:39;;;;;;;0.10;0.10;;;;;;;9.46;100.00;100390.22;5051066;28;20188;-53
2024/01/25 10:11:28;;;;;;;0.10;0.10;;;;;;;9.44;100.00;100389.41;5051248;28;20239;-53
2024/01/25 10:14:18;;;;;;;0.10;0.10;;;;;;;9.33;100.00;100403.06;5051208;28;20678;-52
2024/01/25 10:17:05;;;;;;;0.10;0.10;;;;;;;9.36;100.00;100408.25;5051980;28;20242;-53
2024/01/25 10:19:53;;;;;;;0.10;0.10;;;;;;;9.37;100.00;100415.25;5051405;28;20199;-53
2024/01/25 10:22:40;;;;;;;0.10;0.10;;;;;;;9.50;100.00;100409.47;5049741;28;20463;-53
2024/01/25 10:25:27;;;;;;;0.00;0.00;;;;;;;9.58;100.00;100416.19;5055016;28;20207;-53
2024/01/25 10:28:15;;;;;;;0.10;0.10;;;;;;;9.36;100.00;100410.88;5054942;28;20303;-53
2024/01/25 10:31:06;;;;;;;0.10;0.10;;;;;;;9.92;100.00;100414.81;5055354;28;20733;-53
2024/01/25 10:33:54;;;;;;;0.10;0.10;;;;;;;9.94;100.00;100411.19;5055828;28;20192;-53
2024/01/25 10:36:42;;;;;;;0.10;0.10;;;;;;;10.22;100.00;100410.06;5055433;28;20690;-53
2024/01/25 10:39:30;;;;;;;0.00;0.00;;;;;;;10.65;100.00;100413.50;5039626;28;20192;-53
2024/01/25 10:42:17;;;;;;;0.10;0.10;;;;;;;11.02;100.00;100394.16;5055259;28;20215;-53
2024/01/25 10:45:05;;;;;;;0.10;0.10;;;;;;;11.41;100.00;100386.13;5055333;28;20196;-53
2024/01/25 10:47:53;;;;;;;0.10;0.10;;;;;;;11.71;100.00;100394.41;5055340;28;20674;-53
2024/01/25 10:50:40;;;;;;;0.10;0.10;;;;;;;11.84;100.00;100387.59;5055660;28;20200;-53
2024/01/25 10:53:28;;;;;;;0.10;0.10;;;;;;;11.60;100.00;100376.34;5053772;28;20578;-53
2024/01/25 10:56:15;;;;;;;0.10;0.10;;;;;;;11.37;100.00;100388.06;5055491;28;20267;-53
2024/01/25 10:59:03;;;;;;;0.10;0.10;;;;;;;11.41;100.00;100383.47;5055233;28;20200;-53
2024/01/25 11:01:50;;;;;;;0.10;0.10;;;;;;;11.25;100.00;100385.13;5055171;28;20196;-53
2024/01/25 11:04:38;;;;;;;0.00;0.00;;;;;;;11.73;100.00;100397.84;5054711;28;20227;-53
2024/01/25 11:07:25;;;;;;;0.10;0.10;;;;;;;11.48;100.00;100395.50;5053357;28;20200;-53
2024/01/25 11:10:16;;;;;;;0.10;0.10;;;;;;;12.21;100.00;100399.03;5054016;28;20199;-52
2024/01/25 11:13:05;;;;;;;0.00;0.00;;;;;;;13.51;100.00;100384.97;5053841;28;20663;-53
2024/01/25 11:15:52;;;;;;;0.00;0.00;;;;;;;13.77;91.54;100383.47;5054022;28;20320;-53
2024/01/25 11:18:49;;;;;;;0.10;0.10;;;;;;;13.71;88.13;100378.50;5054345;28;20207;-53
2024/01/25 11:21:43;;;;;;;0.10;0.10;;;;;;;13.81;84.51;100368.19;5053312;28;20243;-53
2024/01/25 11:24:30;;;;;;;0.10;0.10;;;;;;;13.05;89.03;100344.91;5053535;28;20231;-53
2024/01/25 11:27:17;;;;;;;0.10;0.10;;;;;;;12.45;92.84;100339.31;5054674;28;20552;-53
2024/01/25 11:30:09;;;;;;;0.10;0.10;;;;;;;12.00;99.54;100345.19;5054532;28;20227;-53
2024/01/25 11:32:56;;;;;;;0.10;0.10;;;;;;;12.11;100.00;100334.88;5054644;28;20218;-53
2024/01/25 11:35:43;;;;;;;0.10;0.10;;;;;;;11.68;100.00;100341.47;5054128;28;20242;-53
2024/01/25 11:38:32;;;;;;;0.10;0.10;;;;;;;11.69;100.00;100336.09;5052058;28;20266;-53
2024/01/25 11:41:19;;;;;;;0.10;0.10;;;;;;;11.57;100.00;100330.50;5053368;28;20204;-53
2024/01/25 11:44:06;;;;;;;0.07;0.07;;;;;;;11.50;100.00;100331.78;5052811;28;20310;-53
2024/01/25 11:46:55;;;;;;;0.10;0.10;;;;;;;11.26;100.00;100334.66;5053469;28;20300;-53
2024/01/25 11:49:42;;;;;;;0.10;0.10;;;;;;;11.02;100.00;100327.88;5053885;28;20189;-53
2024/01/25 11:52:31;;;;;;;0.10;0.10;;;;;;;10.81;100.00;100327.97;5052602;28;20211;-53
2024/01/25 11:55:19;;;;;;;0.10;0.10;;;;;;;10.80;100.00;100328.00;5053817;28;20675;-52
2024/01/25 11:58:07;;;;;;;0.10;0.10;;;;;;;10.68;100.00;100321.47;5053710;28;20654;-54
2024/01/25 12:00:55;;;;;;;0.00;0.00;;;;;;;10.80;100.00;100314.75;5053617;28;20196;-53
2024/01/25 12:03:42;;;;;;;0.10;0.10;;;;;;;10.80;100.00;100317.41;5033359;28;20224;-53
2024/01/25 12:06:29;;;;;;;0.10;0.10;;;;;;;11.28;100.00;100316.88;5033793;28;20240;-53
2024/01/25 12:09:17;;;;;;;0.10;0.10;;;;;;;11.28;100.00;100321.31;5032304;28;20200;-53
2024/01/25 12:12:06;;;;;;;0.10;0.10;;;;;;;10.75;100.00;100312.31;5040400;28;20196;-53
2024/01/25 12:14:57;;;;;;;0.10;0.10;;;;;;;11.25;100.00;100314.38;5053426;28;20188;-53
2024/01/25 12:17:45;;;;;;;0.10;0.10;;;;;;;11.17;100.00;100322.69;5053446;28;20211;-53
2024/01/25 12:20:32;;;;;;;0.10;0.10;;;;;;;11.13;100.00;100320.28;5053371;28;20196;-53
2024/01/25 12:23:18;;;;;;;0.10;0.10;;;;;;;11.32;100.00;100328.22;5051871;28;20212;-52
2024/01/25 12:26:07;;;;;;;0.10;0.10;;;;;;;11.65;100.00;100326.56;5053308;28;20675;-53
2024/01/25 12:28:55;;;;;;;0.10;0.10;;;;;;;12.35;97.73;100314.13;5053195;28;20200;-53
2024/01/25 12:31:42;;;;;;;0.10;0.10;;;;;;;12.54;90.58;100319.34;5052976;28;20187;-54
2024/01/25 12:34:29;;;;;;;0.07;0.07;;;;;;;13.12;88.03;100309.06;5053181;28;20246;-54
2024/01/25 12:37:16;;;;;;;0.10;0.10;;;;;;;13.34;85.12;100308.72;5051694;28;20729;-53
2024/01/25 12:40:03;;;;;;;0.10;0.10;;;;;;;13.28;83.51;100282.47;5052984;28;20732;-53
2024/01/25 12:42:50;;;;;;;0.10;0.10;;;;;;;14.34;75.93;100290.38;5052781;28;20224;-53
2024/01/25 12:45:38;;;;;;;0.10;0.10;;;;;;;14.44;72.08;100280.84;5052341;28;20263;-53
2024/01/25 12:48:25;;;;;;;0.10;0.10;;;;;;;14.08;72.66;100275.09;5052733;28;20192;-53
2024/01/25 12:51:12;;;;;;;0.10;0.10;;;;;;;13.94;74.45;100268.81;5052763;28;20215;-53
2024/01/25 12:53:59;;;;;;;0.10;0.10;;;;;;;14.07;75.05;100270.72;5031407;28;20196;-53
2024/01/25 12:56:46;;;;;;;0.10;0.10;;;;;;;14.63;74.39;100266.41;5032703;28;20223;-54
2024/01/25 12:59:33;;;;;;;0.10;0.10;;;;;;;16.63;63.06;100274.34;5032714;28;20280;-54